Claypool, Arizona
Current Conditions -  °F | °C
As of 3:48 PM on Saturday 25 Oct 2014 (Local Time) from KIWA Reporting Station
Scattered Clouds Scattered Clouds  
Wind Chill: 93°   Ceiling: Unl
Heat Index: 93°   Visibility: 45mi
Dew Point: 52°   Wind: 5mph
Humidity: 24%   Direction: 270°W
Pressure: 29.94"   Gusts: NA
Location:  33.41°N, 110.84°W
Report Text: KIWA 252248Z 27004KT 45SM FEW060 SCT080 34/11 A2994
Loading
Personal Weather Stations






























Interactive Weather Map
Tropical Storm Tracking
New forecast layout! Learn more

10-Day Weather Forecast

Advertisements
Track Severe Weather on mobile